Time;durP1;ratioP1;P1;durP2;ratioP2;P2;SDS_P1;SDS_P2;PMS_P1;PMS_P2;Temp;Humidity;BMP_temperature;BMP_pressure;BME280_temperature;BME280_humidity;BME280_pressure;Samples;Min_cycle;Max_cycle;Signal;HPM_P1;HPM_P2
2024/04/07 00:00:44;;;;;;;;;2.00;0.50;;;;;19.60;59.96;100888.47;5101774;27;45187;-82
2024/04/07 00:03:09;;;;;;;;;0.50;0.50;;;;;19.63;60.15;100885.53;5101759;27;45263;-82
2024/04/07 00:05:35;;;;;;;;;2.00;1.00;;;;;19.60;60.05;100879.47;5100579;27;45232;-82
2024/04/07 00:08:00;;;;;;;;;0.00;0.00;;;;;19.57;60.25;100880.53;5101711;27;45333;-82
2024/04/07 00:10:26;;;;;;;;;1.50;1.50;;;;;19.42;60.09;100868.91;5102261;27;45361;-82
2024/04/07 00:12:51;;;;;;;;;0.00;0.00;;;;;19.54;60.17;100918.66;5100719;27;45270;-82
2024/04/07 00:15:16;;;;;;;;;0.75;0.00;;;;;19.55;60.10;100927.66;5101483;27;51454;-82
2024/04/07 00:17:42;;;;;;;;;1.00;1.00;;;;;19.49;59.89;100925.34;5105082;27;45293;-82
2024/04/07 00:20:07;;;;;;;;;1.00;1.00;;;;;19.48;59.86;100919.09;5086581;27;46094;-82
2024/04/07 00:22:33;;;;;;;;;1.00;0.25;;;;;19.47;59.39;100930.88;5105219;27;45635;-82
2024/04/07 00:24:58;;;;;;;;;1.00;1.00;;;;;19.39;59.29;100930.50;5091454;27;45354;-82
2024/04/07 00:27:26;;;;;;;;;0.00;0.00;;;;;19.50;59.51;100927.09;5103993;27;45334;-82
2024/04/07 00:29:52;;;;;;;;;1.00;0.75;;;;;19.47;59.40;100944.41;5102170;27;45390;-82
2024/04/07 00:32:17;;;;;;;;;0.25;0.25;;;;;19.40;59.47;100943.09;5104550;27;45215;-82
2024/04/07 00:34:43;;;;;;;;;1.25;0.25;;;;;19.47;59.46;100930.00;5086384;27;44871;-82
2024/04/07 00:37:08;;;;;;;;;0.00;0.00;;;;;19.32;60.25;100911.09;5104165;27;45432;-82
2024/04/07 00:39:34;;;;;;;;;0.00;0.00;;;;;19.43;59.61;100932.91;5103657;27;45535;-82
2024/04/07 00:42:00;;;;;;;;;0.00;0.00;;;;;19.43;59.78;100927.50;5104116;27;45231;-82
2024/04/07 00:44:25;;;;;;;;;1.00;0.25;;;;;19.37;59.47;100922.50;5103833;27;45591;-82
2024/04/07 00:46:50;;;;;;;;;0.75;0.75;;;;;19.29;59.55;100907.72;5104827;27;45224;-82
2024/04/07 00:49:16;;;;;;;;;1.00;1.00;;;;;19.40;59.89;100935.81;5093819;27;46564;-82
2024/04/07 00:51:42;;;;;;;;;0.00;0.00;;;;;19.41;59.80;100933.97;5105180;27;45243;-82
2024/04/07 00:54:09;;;;;;;;;0.25;0.25;;;;;19.39;59.85;100922.38;5097435;27;45343;-82
2024/04/07 00:56:35;;;;;;;;;0.50;0.00;;;;;19.38;59.24;100917.97;5092083;27;45326;-82
2024/04/07 00:59:01;;;;;;;;;1.75;0.00;;;;;19.36;59.35;100900.94;5102638;27;45499;-82
2024/04/07 01:01:27;;;;;;;;;0.00;0.00;;;;;19.34;59.36;100887.50;5102788;27;45367;-82
2024/04/07 01:03:52;;;;;;;;;0.00;0.00;;;;;19.29;58.98;100900.47;5085716;27;58718;-81
2024/04/07 01:06:17;;;;;;;;;1.00;1.00;;;;;19.25;59.50;100886.28;5079870;27;45236;-81
2024/04/07 01:08:43;;;;;;;;;0.00;0.00;;;;;19.27;59.40;100893.44;5102671;27;46301;-82
2024/04/07 01:11:08;;;;;;;;;0.00;0.00;;;;;19.21;59.09;100890.19;5104853;27;45260;-82
2024/04/07 01:13:34;;;;;;;;;0.75;0.00;;;;;19.17;59.64;100885.06;5085237;27;45267;-82
2024/04/07 01:15:59;;;;;;;;;1.50;0.50;;;;;19.17;59.67;100885.06;5084550;27;45283;-81
2024/04/07 01:18:25;;;;;;;;;0.25;0.25;;;;;19.23;59.82;100892.78;5102740;27;46457;-82
2024/04/07 01:20:50;;;;;;;;;0.00;0.00;;;;;19.25;59.27;100894.41;5102242;27;52189;-82
2024/04/07 01:23:19;;;;;;;;;1.00;1.00;;;;;19.15;59.74;100878.88;5100962;27;45408;-82
2024/04/07 01:25:44;;;;;;;;;2.00;2.00;;;;;19.18;60.07;100887.66;5093984;27;45285;-82
2024/04/07 01:28:11;;;;;;;;;0.00;0.00;;;;;19.14;60.27;100869.88;5101419;27;45327;-82
2024/04/07 01:30:36;;;;;;;;;1.00;1.00;;;;;19.15;60.32;100877.03;5101813;27;45269;-82
2024/04/07 01:33:03;;;;;;;;;0.50;0.00;;;;;19.10;60.02;100856.69;5081515;28;45259;-81
2024/04/07 01:35:29;;;;;;;;;2.00;1.25;;;;;19.18;60.12;100867.88;5085805;27;45481;-81
2024/04/07 01:37:54;;;;;;;;;1.00;1.00;;;;;19.13;59.85;100867.28;5103107;27;45500;-81
2024/04/07 01:40:20;;;;;;;;;0.25;0.25;;;;;19.09;60.03;100872.03;5085757;27;45269;-82
2024/04/07 01:42:45;;;;;;;;;0.00;0.00;;;;;19.01;59.98;100861.72;5102978;27;46197;-82
2024/04/07 01:45:11;;;;;;;;;0.00;0.00;;;;;19.09;60.19;100869.31;5103782;27;44788;-81
2024/04/07 01:47:37;;;;;;;;;1.00;0.00;;;;;19.07;60.50;100871.28;5102785;27;45580;-82
2024/04/07 01:50:04;;;;;;;;;0.75;0.75;;;;;19.04;59.70;100876.88;5094524;27;45308;-81
2024/04/07 01:52:29;;;;;;;;;0.00;0.00;;;;;19.01;60.27;100871.66;5103202;27;45310;-81
2024/04/07 01:54:54;;;;;;;;;1.75;0.00;;;;;19.00;60.35;100886.19;5083979;27;45459;-82
2024/04/07 01:57:20;;;;;;;;;0.25;0.00;;;;;18.97;60.60;100887.22;5083913;27;48061;-81
2024/04/07 01:59:45;;;;;;;;;1.00;1.00;;;;;18.90;60.41;100890.47;5102955;27;45401;-81
2024/04/07 02:02:11;;;;;;;;;0.50;0.00;;;;;18.94;60.43;100900.09;5102125;27;45463;-82
2024/04/07 02:04:36;;;;;;;;;0.25;0.25;;;;;18.90;60.22;100893.16;5086280;27;45799;-82
2024/04/07 02:07:02;;;;;;;;;0.00;0.00;;;;;18.92;60.48;100920.97;5103072;27;45337;-81
2024/04/07 02:09:28;;;;;;;;;0.75;0.00;;;;;18.92;60.28;100920.97;5103327;27;45305;-82
2024/04/07 02:11:54;;;;;;;;;0.00;0.00;;;;;18.74;60.37;100885.13;5085593;27;45269;-82
2024/04/07 02:14:20;;;;;;;;;0.25;0.25;;;;;18.73;60.15;100891.47;5102249;27;45199;-83
2024/04/07 02:16:45;;;;;;;;;0.00;0.00;;;;;18.73;60.21;100886.97;5084741;27;47168;-82
2024/04/07 02:19:11;;;;;;;;;0.00;0.00;;;;;18.84;60.01;100911.53;5101320;27;60395;-82
2024/04/07 02:21:36;;;;;;;;;0.25;0.25;;;;;18.77;60.27;100904.72;5103064;27;45721;-83
2024/04/07 02:24:02;;;;;;;;;0.00;0.00;;;;;18.81;60.02;100913.50;5095254;27;45397;-83
2024/04/07 02:26:27;;;;;;;;;0.00;0.00;;;;;18.81;59.81;100924.31;5080625;27;47334;-82
2024/04/07 02:28:52;;;;;;;;;0.00;0.00;;;;;18.80;60.07;100939.69;5100863;27;52086;-82
2024/04/07 02:31:18;;;;;;;;;0.00;0.00;;;;;18.81;59.92;100935.13;5102804;27;45317;-82
2024/04/07 02:33:46;;;;;;;;;0.00;0.00;;;;;18.82;60.00;100936.88;5102186;27;45373;-82
2024/04/07 02:36:15;;;;;;;;;0.00;0.00;;;;;18.73;59.91;100923.94;5101676;27;46063;-82
2024/04/07 02:38:40;;;;;;;;;0.00;0.00;;;;;18.71;59.88;100921.34;5101988;27;45598;-82
2024/04/07 02:41:05;;;;;;;;;0.00;0.00;;;;;18.72;60.17;100928.47;5100780;27;55828;-82
2024/04/07 02:43:31;;;;;;;;;0.00;0.00;;;;;18.77;60.09;100939.88;5084562;27;45679;-82
2024/04/07 02:48:43;;;;;;;;;0.00;0.00;;;;;18.74;60.73;100942.75;5093617;27;45250;-83
2024/04/07 02:51:09;;;;;;;;;0.75;0.75;;;;;18.74;60.60;100944.63;5102913;27;45414;-82
2024/04/07 02:53:34;;;;;;;;;0.50;0.00;;;;;18.69;60.63;100932.28;5095554;27;45337;-82
2024/04/07 02:56:00;;;;;;;;;0.00;0.00;;;;;18.73;60.89;100930.22;5102039;27;64169;-82
2024/04/07 02:58:25;;;;;;;;;0.75;0.75;;;;;18.73;60.92;100932.94;5103275;27;45353;-83
2024/04/07 03:00:50;;;;;;;;;2.25;0.00;;;;;18.61;61.02;100915.66;5102331;27;45265;-82
2024/04/07 03:03:15;;;;;;;;;2.00;1.00;;;;;18.59;60.70;100922.97;5101484;27;54025;-82
2024/04/07 03:05:41;;;;;;;;;0.00;0.00;;;;;18.63;61.08;100937.19;5101004;27;46136;-82
2024/04/07 03:08:06;;;;;;;;;0.00;0.00;;;;;18.57;61.34;100932.16;5099901;27;58530;-82
2024/04/07 03:10:32;;;;;;;;;0.00;0.00;;;;;18.62;61.01;100938.16;5102396;27;45266;-82
2024/04/07 03:12:57;;;;;;;;;0.75;0.00;;;;;18.65;60.93;100956.88;5084431;27;45251;-82
2024/04/07 03:15:23;;;;;;;;;0.25;0.25;;;;;18.64;61.40;100949.72;5102433;27;45203;-82
2024/04/07 03:17:48;;;;;;;;;0.75;0.00;;;;;18.62;61.18;100954.38;5102170;27;45210;-82
2024/04/07 03:20:14;;;;;;;;;0.25;0.00;;;;;18.50;61.63;100937.09;5102479;27;45253;-82
2024/04/07 03:22:39;;;;;;;;;0.00;0.00;;;;;18.57;61.42;100953.78;5084430;27;45423;-82
2024/04/07 03:25:05;;;;;;;;;0.00;0.00;;;;;18.50;61.61;100942.50;5093414;27;54217;-82
2024/04/07 03:27:30;;;;;;;;;0.00;0.00;;;;;18.41;61.61;100937.66;5101377;27;45296;-82
2024/04/07 03:29:55;;;;;;;;;0.00;0.00;;;;;18.52;61.52;100954.94;5099793;27;45376;-82
2024/04/07 03:32:21;;;;;;;;;0.00;0.00;;;;;18.52;61.66;100963.03;5101062;27;60107;-82
2024/04/07 03:34:46;;;;;;;;;0.75;0.75;;;;;18.46;61.53;100958.03;5102475;27;45382;-82
2024/04/07 03:37:13;;;;;;;;;0.00;0.00;;;;;18.41;61.82;100934.94;5100993;27;45514;-82
2024/04/07 03:39:38;;;;;;;;;0.75;0.75;;;;;18.52;62.07;100956.78;5102815;27;45337;-82
2024/04/07 03:42:04;;;;;;;;;0.50;0.50;;;;;18.48;62.36;100963.34;5102464;27;45626;-82
2024/04/07 03:44:29;;;;;;;;;0.50;0.50;;;;;18.51;62.58;100965.88;5101909;27;45468;-82
2024/04/07 03:46:57;;;;;;;;;0.00;0.00;;;;;18.50;62.25;100958.72;5100743;27;45285;-82
2024/04/07 03:49:22;;;;;;;;;1.50;0.00;;;;;18.44;62.90;100959.09;5092530;27;45329;-82
2024/04/07 03:51:48;;;;;;;;;0.50;0.50;;;;;18.45;62.49;100967.09;5086154;27;45740;-82
2024/04/07 03:54:13;;;;;;;;;0.25;0.00;;;;;18.46;62.83;100976.97;5096481;27;47147;-82
2024/04/07 03:56:38;;;;;;;;;0.00;0.00;;;;;18.44;62.98;100973.50;5105139;27;64075;-82
2024/04/07 03:59:04;;;;;;;;;2.75;0.75;;;;;18.37;63.09;100971.25;5087366;27;45540;-82
2024/04/07 04:01:31;;;;;;;;;0.00;0.00;;;;;18.40;63.29;100988.13;5105407;27;45274;-82
2024/04/07 04:03:56;;;;;;;;;0.00;0.00;;;;;18.36;63.19;100991.13;5104113;27;47581;-82
2024/04/07 04:06:21;;;;;;;;;0.00;0.00;;;;;18.39;63.66;100999.91;5103108;27;45384;-82
2024/04/07 04:08:47;;;;;;;;;1.50;0.50;;;;;18.25;63.45;100978.28;5104545;27;45394;-82
2024/04/07 04:11:12;;;;;;;;;0.00;0.00;;;;;18.37;63.42;100991.03;5105505;27;53920;-82
2024/04/07 04:13:38;;;;;;;;;1.50;0.75;;;;;18.38;63.49;101006.28;5105224;27;45826;-82
2024/04/07 04:16:05;;;;;;;;;0.00;0.00;;;;;18.37;63.92;101001.84;5105071;27;45343;-82
2024/04/07 04:18:31;;;;;;;;;0.75;0.25;;;;;18.31;63.70;101003.09;5100124;27;45456;-82
2024/04/07 04:20:56;;;;;;;;;0.25;0.25;;;;;18.27;63.65;100995.25;5097516;27;45252;-82
2024/04/07 04:23:21;;;;;;;;;0.50;0.00;;;;;18.27;63.91;100997.97;5083019;27;56227;-82
2024/04/07 04:25:55;;;;;;;;;0.75;0.75;;;;;18.21;63.92;100990.22;5095468;27;56466;-82
2024/04/07 04:28:22;;;;;;;;;1.50;0.25;;;;;18.21;64.35;101001.03;5087518;27;45257;-82
2024/04/07 04:31:00;;;;;;;;;1.00;1.00;;;;;18.20;64.30;100996.59;5071318;27;45211;-82
2024/04/07 04:33:27;;;;;;;;;0.00;0.00;;;;;18.25;64.58;101002.59;5092679;27;45716;-82
2024/04/07 04:35:53;;;;;;;;;1.00;1.00;;;;;18.25;64.78;101013.41;5104767;27;45434;-82
2024/04/07 04:38:18;;;;;;;;;1.00;1.00;;;;;18.20;64.79;100996.59;5106030;27;45282;-82
2024/04/07 04:40:56;;;;;;;;;1.75;0.75;;;;;18.25;64.80;101008.84;5086843;27;45382;-82
2024/04/07 04:43:22;;;;;;;;;1.00;1.00;;;;;18.20;64.62;101007.41;5105168;27;45397;-82
2024/04/07 04:46:09;;;;;;;;;0.00;0.00;;;;;18.20;64.83;101016.38;5105234;27;45557;-81
2024/04/07 04:48:34;;;;;;;;;0.00;0.00;;;;;18.13;64.57;101002.34;5096533;27;45451;-82
2024/04/07 04:51:00;;;;;;;;;3.50;1.00;;;;;18.12;64.85;101007.84;5104179;27;45353;-82
2024/04/07 04:53:26;;;;;;;;;1.00;1.00;;;;;18.14;64.65;100997.81;5086646;27;47164;-82
2024/04/07 04:55:52;;;;;;;;;2.00;1.00;;;;;18.13;64.89;100999.66;5104935;27;45698;-82
2024/04/07 04:58:19;;;;;;;;;0.25;0.25;;;;;18.12;65.24;101011.41;5086976;27;45392;-82
2024/04/07 05:00:44;;;;;;;;;0.00;0.00;;;;;18.13;64.80;101015.00;5104129;27;45396;-81
2024/04/07 05:03:10;;;;;;;;;0.50;0.00;;;;;18.15;65.21;101019.34;5102493;27;47054;-81
2024/04/07 05:05:35;;;;;;;;;0.00;0.00;;;;;18.19;64.99;101021.88;5079585;27;45633;-82
2024/04/07 05:08:00;;;;;;;;;0.50;0.50;;;;;18.08;65.11;101006.31;5089372;27;45361;-82
2024/04/07 05:10:25;;;;;;;;;0.00;0.00;;;;;18.09;64.91;101013.44;5086835;27;45941;-82
2024/04/07 05:12:51;;;;;;;;;1.75;0.75;;;;;18.12;64.71;101016.81;5103750;27;59905;-82
2024/04/07 05:15:16;;;;;;;;;0.75;0.50;;;;;18.18;64.76;101028.25;5103908;27;45280;-82
2024/04/07 05:17:42;;;;;;;;;0.25;0.25;;;;;18.17;65.00;101035.47;5100749;27;45534;-82
2024/04/07 05:20:08;;;;;;;;;0.00;0.00;;;;;18.20;65.18;101042.53;5103521;27;45281;-82
2024/04/07 05:22:33;;;;;;;;;0.00;0.00;;;;;18.13;65.22;101032.06;5104087;27;45164;-82
2024/04/07 05:24:59;;;;;;;;;0.00;0.00;;;;;18.19;65.27;101048.88;5090946;27;45253;-82
2024/04/07 05:27:25;;;;;;;;;1.00;0.00;;;;;18.12;65.39;101043.84;5104098;27;45360;-82
2024/04/07 05:29:50;;;;;;;;;1.00;0.75;;;;;18.18;65.09;101052.56;5100264;27;45402;-82
2024/04/07 05:32:15;;;;;;;;;1.00;0.25;;;;;18.14;65.38;101049.16;5104447;27;45687;-82
2024/04/07 05:34:41;;;;;;;;;1.50;0.75;;;;;18.08;65.51;101045.00;5104233;27;45433;-82
2024/04/07 05:37:06;;;;;;;;;1.25;0.50;;;;;18.09;65.08;101062.06;5084309;27;45437;-82
2024/04/07 05:39:32;;;;;;;;;1.00;0.50;;;;;18.07;65.69;101067.53;5103453;27;45436;-82
2024/04/07 05:41:58;;;;;;;;;0.50;0.00;;;;;17.96;65.59;101057.38;5103197;27;45386;-82
2024/04/07 05:44:23;;;;;;;;;0.50;0.50;;;;;18.04;65.56;101086.66;5100125;27;45462;-82
2024/04/07 05:46:51;;;;;;;;;0.00;0.00;;;;;18.10;65.87;101105.19;5090432;27;45465;-82
2024/04/07 05:49:16;;;;;;;;;0.50;0.50;;;;;18.07;65.83;101089.16;5097157;27;45451;-82
2024/04/07 05:51:42;;;;;;;;;2.25;1.00;;;;;18.08;65.89;101090.91;5103383;27;48297;-81
2024/04/07 05:54:07;;;;;;;;;0.75;0.50;;;;;18.10;65.96;101102.50;5095826;27;56867;-81
2024/04/07 05:56:33;;;;;;;;;0.50;0.50;;;;;17.93;65.81;101072.91;5104724;27;45330;-82
2024/04/07 05:58:58;;;;;;;;;0.00;0.00;;;;;18.08;66.24;101104.41;5103113;27;59656;-82
2024/04/07 06:01:23;;;;;;;;;3.00;1.50;;;;;18.09;65.95;101108.88;5098354;27;66073;-82
2024/04/07 06:03:48;;;;;;;;;0.00;0.00;;;;;18.06;65.71;101117.16;5101610;27;62188;-81
2024/04/07 06:06:14;;;;;;;;;0.50;0.50;;;;;17.86;66.34;101082.25;5093330;27;56395;-85
2024/04/07 06:08:39;;;;;;;;;0.75;0.50;;;;;18.01;66.17;101118.34;5102442;27;45338;-83
2024/04/07 06:11:05;;;;;;;;;1.25;0.50;;;;;18.03;66.29;101121.88;5091194;27;47419;-82
2024/04/07 06:13:30;;;;;;;;;0.50;0.50;;;;;17.97;66.37;101109.56;5088538;27;45335;-83
2024/04/07 06:15:56;;;;;;;;;0.75;0.75;;;;;17.93;66.36;101114.28;5093186;27;45505;-83
2024/04/07 06:18:21;;;;;;;;;1.00;1.00;;;;;17.80;66.78;101090.75;5116285;27;45431;-83
2024/04/07 06:20:46;;;;;;;;;2.50;1.00;;;;;17.79;66.39;101089.84;5113932;27;47278;-83
2024/04/07 06:23:12;;;;;;;;;0.50;0.50;;;;;17.92;66.52;101114.34;5100478;27;45296;-82
2024/04/07 06:25:37;;;;;;;;;0.25;0.25;;;;;17.82;66.51;101091.50;5114443;27;45289;-82
2024/04/07 06:28:04;;;;;;;;;0.00;0.00;;;;;17.93;66.26;101124.22;5107811;27;45294;-82
2024/04/07 06:30:29;;;;;;;;;0.25;0.25;;;;;17.85;66.42;101121.91;5105200;27;45334;-83
2024/04/07 06:32:55;;;;;;;;;0.00;0.00;;;;;17.91;66.46;101136.94;5089050;27;49751;-82
2024/04/07 06:35:20;;;;;;;;;0.50;0.50;;;;;17.88;66.31;101137.97;5103579;27;45298;-82
2024/04/07 06:37:45;;;;;;;;;0.00;0.00;;;;;17.90;66.76;101146.00;5105254;27;57955;-83
2024/04/07 06:40:11;;;;;;;;;2.00;1.25;;;;;17.79;66.42;101124.94;5087954;27;46203;-83
2024/04/07 06:42:37;;;;;;;;;0.50;0.00;;;;;17.89;66.35;101158.63;5093154;27;45700;-82
2024/04/07 06:45:02;;;;;;;;;1.50;0.00;;;;;17.91;66.33;101166.66;5108316;27;45402;-83
2024/04/07 06:47:28;;;;;;;;;2.00;1.00;;;;;17.81;66.39;101141.06;5105951;27;45449;-83
2024/04/07 06:49:55;;;;;;;;;1.00;1.00;;;;;17.90;66.85;101159.50;5086260;27;47562;-83
2024/04/07 06:52:22;;;;;;;;;2.75;2.00;;;;;17.83;66.92;101153.53;5105754;27;45765;-84
2024/04/07 06:54:47;;;;;;;;;0.50;0.00;;;;;17.86;66.61;101157.88;5106656;27;45428;-83
2024/04/07 06:57:14;;;;;;;;;1.75;1.00;;;;;17.88;66.43;101156.03;5097887;27;45257;-83
2024/04/07 06:59:40;;;;;;;;;1.00;1.00;;;;;17.90;66.52;101157.66;5101418;27;48268;-84
2024/04/07 07:02:06;;;;;;;;;0.00;0.00;;;;;17.82;66.84;101151.78;5107491;27;45250;-83
2024/04/07 07:04:31;;;;;;;;;0.25;0.25;;;;;17.90;66.38;101164.91;5104101;27;45196;-83
2024/04/07 07:06:56;;;;;;;;;2.00;1.00;;;;;17.81;66.55;101151.88;5105003;27;50132;-83
2024/04/07 07:09:22;;;;;;;;;0.75;0.75;;;;;17.80;67.10;101158.25;5093009;27;45455;-83
2024/04/07 07:11:47;;;;;;;;;0.75;0.75;;;;;17.73;67.08;101150.47;5095502;27;45256;-83
2024/04/07 07:14:12;;;;;;;;;1.00;1.00;;;;;17.83;66.73;101158.06;5098099;27;48983;-83
2024/04/07 07:16:38;;;;;;;;;2.25;0.25;;;;;17.80;67.40;101145.59;5103554;27;45238;-83
2024/04/07 07:19:04;;;;;;;;;0.00;0.00;;;;;17.77;67.47;101143.97;5102078;27;46446;-81
2024/04/07 07:21:29;;;;;;;;;1.50;0.50;;;;;17.86;67.54;101156.06;5093725;27;45260;-81
2024/04/07 07:23:54;;;;;;;;;4.75;0.25;;;;;17.73;67.42;101136.97;5100201;27;45229;-81
2024/04/07 07:26:20;;;;;;;;;1.00;1.00;;;;;17.83;67.00;101161.63;5100970;27;55106;-81
2024/04/07 07:28:45;;;;;;;;;1.00;1.00;;;;;17.73;67.46;101147.78;5101895;27;47413;-81
2024/04/07 07:31:10;;;;;;;;;1.75;1.00;;;;;17.84;66.83;101167.91;5101520;27;45274;-81
2024/04/07 07:33:36;;;;;;;;;1.00;1.00;;;;;17.89;67.06;101171.25;5102314;27;45684;-80
2024/04/07 07:36:01;;;;;;;;;2.50;1.75;;;;;17.85;67.54;101170.50;5102118;27;62459;-81
2024/04/07 07:38:26;;;;;;;;;1.50;1.00;;;;;17.85;67.31;101164.25;5102330;27;45308;-80
2024/04/07 07:40:52;;;;;;;;;2.75;1.00;;;;;17.83;67.16;101167.03;5101610;27;63368;-81
2024/04/07 07:43:17;;;;;;;;;0.00;0.00;;;;;17.74;67.39;101159.44;5083900;27;54467;-80
2024/04/07 07:45:49;;;;;;;;;2.00;0.50;;;;;17.78;67.26;101171.81;5102286;27;45238;-81
2024/04/07 07:48:14;;;;;;;;;2.00;1.00;;;;;17.74;67.51;101160.34;5096899;27;45383;-81
2024/04/07 07:50:41;;;;;;;;;1.50;0.00;;;;;17.85;66.98;101178.63;5093296;27;45479;-81
2024/04/07 07:53:06;;;;;;;;;1.50;1.00;;;;;17.88;67.07;101169.53;5101629;27;45351;-81
2024/04/07 07:55:31;;;;;;;;;1.50;0.50;;;;;17.88;67.16;101185.72;5101439;27;61490;-81
2024/04/07 07:57:57;;;;;;;;;1.25;0.50;;;;;17.89;67.49;101180.25;5099912;27;63947;-81
2024/04/07 08:00:23;;;;;;;;;2.00;1.00;;;;;17.85;67.80;101172.34;5082558;27;57802;-81
2024/04/07 08:02:52;;;;;;;;;3.00;1.00;;;;;17.81;67.55;101159.97;5101856;27;45362;-81
2024/04/07 08:05:17;;;;;;;;;2.00;2.00;;;;;17.90;67.59;101175.69;5083108;27;45453;-81
2024/04/07 08:07:43;;;;;;;;;1.50;0.50;;;;;17.86;67.85;101169.56;5101396;27;45262;-81
2024/04/07 08:10:08;;;;;;;;;1.00;1.00;;;;;17.89;67.51;101171.25;5101602;27;45270;-81
2024/04/07 08:12:36;;;;;;;;;1.00;1.00;;;;;17.93;67.41;101175.53;5101699;27;45403;-80
2024/04/07 08:15:01;;;;;;;;;1.25;1.25;;;;;17.88;67.75;101170.38;5088607;27;45314;-81
2024/04/07 08:17:26;;;;;;;;;1.00;1.00;;;;;17.96;67.74;101186.16;5093365;27;47272;-81
2024/04/07 08:19:52;;;;;;;;;5.50;1.50;;;;;17.96;67.68;101183.47;5101152;27;45405;-81
2024/04/07 08:22:17;;;;;;;;;2.25;1.00;;;;;17.93;67.66;101183.63;5087811;27;45271;-81
2024/04/07 08:24:43;;;;;;;;;0.50;0.50;;;;;17.93;68.08;101184.50;5101092;27;45463;-81
2024/04/07 08:27:08;;;;;;;;;1.00;1.00;;;;;18.00;67.88;101184.16;5100555;27;55431;-81
2024/04/07 08:29:33;;;;;;;;;1.00;0.50;;;;;18.00;67.69;101187.72;5101056;27;45556;-81
2024/04/07 08:31:59;;;;;;;;;1.25;0.50;;;;;17.83;67.29;101161.63;5096951;27;46198;-80
2024/04/07 08:34:24;;;;;;;;;4.00;0.50;;;;;17.88;67.68;101170.38;5100493;27;45310;-79
2024/04/07 08:36:49;;;;;;;;;1.25;0.50;;;;;17.97;67.49;101190.59;5100801;27;59164;-79
2024/04/07 08:39:15;;;;;;;;;0.50;0.50;;;;;17.99;67.56;101191.38;5104155;27;45287;-79
2024/04/07 08:41:43;;;;;;;;;1.00;0.50;;;;;18.02;67.40;101193.91;5103976;27;51863;-78
2024/04/07 08:44:09;;;;;;;;;1.00;0.50;;;;;17.99;67.40;101185.97;5101791;27;45295;-80
2024/04/07 08:46:37;;;;;;;;;1.50;1.50;;;;;17.90;67.49;101184.66;5102383;27;45387;-80
2024/04/07 08:49:03;;;;;;;;;4.25;1.50;;;;;17.99;67.50;101195.91;5100609;27;46060;-80
2024/04/07 08:51:29;;;;;;;;;0.50;0.50;;;;;18.08;67.67;101212.47;5103565;27;45306;-80
2024/04/07 08:53:57;;;;;;;;;2.00;0.50;;;;;18.10;67.04;101196.19;5104703;27;45322;-80
2024/04/07 08:56:23;;;;;;;;;1.00;0.50;;;;;18.09;67.42;101200.72;5103180;27;47580;-80
2024/04/07 08:58:51;;;;;;;;;0.75;0.75;;;;;18.04;66.98;101186.59;5104149;27;45327;-80
2024/04/07 09:01:18;;;;;;;;;0.25;0.25;;;;;18.15;67.12;101199.50;5103847;27;45361;-80
2024/04/07 09:03:44;;;;;;;;;2.50;0.50;;;;;18.13;66.80;101207.69;5104011;27;45324;-80
2024/04/07 09:06:10;;;;;;;;;0.50;0.50;;;;;18.15;66.46;101205.75;5103630;27;45435;-80
2024/04/07 09:08:35;;;;;;;;;2.00;0.25;;;;;18.07;66.51;101189.09;5104007;27;45325;-80
2024/04/07 09:11:01;;;;;;;;;1.50;0.50;;;;;18.06;66.72;101186.50;5104734;27;45413;-80
2024/04/07 09:13:26;;;;;;;;;1.00;1.00;;;;;18.18;66.51;101193.06;5090537;27;45396;-80
2024/04/07 09:15:52;;;;;;;;;1.50;0.50;;;;;18.14;66.53;101181.53;5092224;27;46142;-81
2024/04/07 09:18:20;;;;;;;;;1.00;1.00;;;;;18.25;66.69;101194.44;5082285;27;45677;-81
2024/04/07 09:20:47;;;;;;;;;1.00;1.00;;;;;18.27;66.26;101200.63;5083844;27;45448;-81
2024/04/07 09:23:12;;;;;;;;;2.75;0.75;;;;;18.28;66.30;101196.97;5079032;27;45811;-81
2024/04/07 09:25:37;;;;;;;;;0.00;0.00;;;;;18.26;66.36;101182.66;5092858;27;45239;-81
2024/04/07 09:28:04;;;;;;;;;1.00;1.00;;;;;18.30;66.32;101184.22;5102863;27;55064;-81
2024/04/07 09:30:30;;;;;;;;;2.00;1.00;;;;;18.27;65.83;101185.25;5101175;27;45329;-81
2024/04/07 09:32:56;;;;;;;;;1.00;1.00;;;;;18.36;66.10;101185.69;5103082;27;46023;-81
2024/04/07 09:35:21;;;;;;;;;0.00;0.00;;;;;18.36;66.30;101174.88;5098446;27;47182;-81
2024/04/07 09:37:47;;;;;;;;;0.75;0.75;;;;;18.35;66.22;101168.63;5085133;27;45815;-80
2024/04/07 09:40:12;;;;;;;;;1.75;0.25;;;;;18.39;65.99;101172.88;5103714;27;45198;-80
2024/04/07 09:42:38;;;;;;;;;3.00;0.75;;;;;18.46;65.56;101176.09;5102074;27;45246;-80
2024/04/07 09:45:06;;;;;;;;;0.25;0.25;;;;;18.44;65.57;101165.41;5103119;27;45483;-80
2024/04/07 09:47:35;;;;;;;;;2.00;0.75;;;;;18.44;65.15;101154.59;5103751;27;45544;-80
2024/04/07 09:50:18;;;;;;;;;1.00;0.50;;;;;18.49;65.58;101159.69;5082830;28;45410;-80
2024/04/07 09:52:51;;;;;;;;;1.00;0.75;;;;;18.51;65.67;101160.50;5100919;27;45476;-80
2024/04/07 09:55:17;;;;;;;;;0.75;0.75;;;;;18.54;65.28;101160.28;5103548;27;45528;-79
2024/04/07 09:57:43;;;;;;;;;2.00;0.25;;;;;18.55;65.17;101170.16;5086005;27;45250;-79
2024/04/07 10:00:12;;;;;;;;;0.75;0.75;;;;;18.57;64.85;101159.25;5104262;27;45429;-79
2024/04/07 10:02:40;;;;;;;;;1.00;1.00;;;;;18.52;64.72;101149.56;5097906;27;45559;-79
2024/04/07 10:05:06;;;;;;;;;1.25;0.75;;;;;18.61;64.67;101166.19;5089603;27;45465;-80
2024/04/07 10:07:34;;;;;;;;;0.50;0.50;;;;;18.65;64.71;101176.75;5096092;27;45436;-80
2024/04/07 10:10:00;;;;;;;;;1.00;1.00;;;;;18.61;64.43;101158.97;5100389;27;45408;-80
2024/04/07 10:12:27;;;;;;;;;1.00;1.00;;;;;18.67;63.98;101172.13;5098943;27;45510;-79
2024/04/07 10:14:52;;;;;;;;;1.00;0.00;;;;;18.70;64.00;101150.31;5099700;27;45369;-79
2024/04/07 10:17:17;;;;;;;;;2.75;1.25;;;;;18.73;63.78;101140.25;5099389;27;56927;-79
2024/04/07 10:19:47;;;;;;;;;0.00;0.00;;;;;18.75;63.28;101147.34;5082386;27;45559;-79
2024/04/07 10:22:15;;;;;;;;;0.00;0.00;;;;;18.75;63.79;101141.06;5099910;27;45568;-79
2024/04/07 10:24:40;;;;;;;;;0.50;0.50;;;;;18.60;63.44;101100.47;5099363;27;46659;-79
2024/04/07 10:27:08;;;;;;;;;0.75;0.75;;;;;18.73;63.73;101116.81;5100172;27;45718;-79
2024/04/07 10:29:34;;;;;;;;;1.00;0.25;;;;;18.83;62.94;101136.97;5097401;27;45792;-78
2024/04/07 10:31:59;;;;;;;;;0.75;0.75;;;;;18.84;63.23;101136.00;5099052;27;45334;-79
2024/04/07 10:34:25;;;;;;;;;3.00;1.00;;;;;18.83;63.28;101130.69;5099451;27;45397;-79
2024/04/07 10:36:56;;;;;;;;;0.75;0.75;;;;;18.91;63.08;101132.91;5100147;27;49033;-78
2024/04/07 10:39:25;;;;;;;;;2.00;1.00;;;;;18.87;63.32;101127.69;5081790;27;44807;-79
2024/04/07 10:41:50;;;;;;;;;1.75;0.00;;;;;18.93;63.15;101139.09;5081732;27;45485;-79
2024/04/07 10:44:16;;;;;;;;;1.75;1.00;;;;;18.96;63.21;101156.03;5080435;27;47317;-80
2024/04/07 10:46:42;;;;;;;;;3.00;2.00;;;;;18.96;63.17;101147.91;5100259;27;45544;-79
2024/04/07 10:49:07;;;;;;;;;0.75;0.75;;;;;18.82;63.06;101123.50;5081616;27;45727;-79
2024/04/07 10:51:33;;;;;;;;;1.00;1.00;;;;;19.01;62.51;101155.72;5080827;27;46062;-79
2024/04/07 10:53:59;;;;;;;;;1.00;1.00;;;;;19.03;62.95;101159.22;5099218;27;45444;-79
2024/04/07 10:56:25;;;;;;;;;2.50;2.00;;;;;19.05;62.49;101141.06;5099463;27;45513;-79
2024/04/07 10:58:50;;;;;;;;;1.00;1.00;;;;;19.04;61.85;101137.50;5099612;27;45748;-80
2024/04/07 11:01:15;;;;;;;;;2.50;0.75;;;;;19.04;62.03;101129.38;5097774;27;45506;-80
2024/04/07 11:03:42;;;;;;;;;1.75;1.75;;;;;19.02;61.90;101125.88;5094942;27;47209;-80
2024/04/07 11:06:08;;;;;;;;;1.50;1.50;;;;;19.10;61.82;101135.38;5096135;27;45428;-79
2024/04/07 11:08:34;;;;;;;;;3.75;3.00;;;;;19.12;62.03;101131.59;5097695;27;45404;-80
2024/04/07 11:11:02;;;;;;;;;5.75;3.75;;;;;19.14;61.97;101126.06;5099046;27;45455;-80
2024/04/07 11:13:28;;;;;;;;;1.00;1.00;;;;;19.19;61.88;101134.78;5095509;27;45510;-80
2024/04/07 11:15:54;;;;;;;;;1.00;1.00;;;;;19.19;62.04;101146.47;5095226;27;45413;-80
2024/04/07 11:18:21;;;;;;;;;2.00;2.00;;;;;19.27;62.18;101145.13;5085375;27;45511;-80
2024/04/07 11:20:48;;;;;;;;;3.00;1.00;;;;;19.25;62.09;101131.69;5098632;27;45449;-81